Karma — WDI3564 — position and weather

sailwx.info

Track history (hours):
 
Tides and Currents Weather Stations Pressure Air Temp Water Temp Dewpoint Dewpoint Depression Visibility Wind Speed Wind Dir Waves Ship Positions

Karma

Owner: Moore, Robert A, Magnolia, TX. More information available from US FCC via Universal Licensing System and Coast Guard Vessel Documentation Center.

Last reported at 2018-Apr-15 23:37 UTC. Time now 2018-Apr-23 05:11 UTC.
Position N 29°33' W 095°02'.

Length 15 m.

Type: Sailing vessel. MMSI: 367689640.

Date/timePositionNaut miles runAvg speedWind from/ knotsBaromVisibWave heightAir tempDewpointWater temp
2018-Apr-15 23:37N 29°33' W 095°02'0 0.0
2018-Apr-15 23:28N 29°33' W 095°02'1 1.2
2018-Apr-15 23:00N 29°33' W 095°02'3 5.9
2018-Apr-15 22:30N 29°32' W 094°58'3 2.3
2018-Apr-15 21:05N 29°31' W 094°55'1 6.5
2018-Apr-15 20:53N 29°32' W 094°55'2 5.0
2018-Apr-15 20:30N 29°34' W 094°57'2 3.4
2018-Apr-15 20:00N 29°35' W 094°58'3 5.5
2018-Apr-15 19:30N 29°33' W 094°60'2 3.9
2018-Apr-15 19:00N 29°33' W 095°02'0 0.0
2018-Apr-15 18:30N 29°33' W 095°02'0 0.0
2018-Apr-15 18:00N 29°33' W 095°02'  
Track history (hours):
 
Tides and Currents Weather Stations Pressure Air Temp Water Temp Dewpoint Dewpoint Depression Visibility Wind Speed Wind Dir Waves Ship Positions

Karma

Owner: Moore, Robert A, Magnolia, TX. More information available from US FCC via Universal Licensing System and Coast Guard Vessel Documentation Center.

Last reported at 2018-Apr-15 23:37 UTC. Time now 2018-Apr-23 05:11 UTC.
Position N 29°33' W 095°02'.

Length 15 m.

Type: Sailing vessel. MMSI: 367689640.

Date/timePositionNaut miles runAvg speedWind from/ knotsBaromVisibWave heightAir tempDewpointWater temp
2018-Apr-15 23:37N 29°33' W 095°02'0 0.0
2018-Apr-15 23:28N 29°33' W 095°02'1 1.2
2018-Apr-15 23:00N 29°33' W 095°02'3 5.9
2018-Apr-15 22:30N 29°32' W 094°58'3 2.3
2018-Apr-15 21:05N 29°31' W 094°55'1 6.5
2018-Apr-15 20:53N 29°32' W 094°55'2 5.0
2018-Apr-15 20:30N 29°34' W 094°57'2 3.4
2018-Apr-15 20:00N 29°35' W 094°58'3 5.5
2018-Apr-15 19:30N 29°33' W 094°60'2 3.9
2018-Apr-15 19:00N 29°33' W 095°02'0 0.0
2018-Apr-15 18:30N 29°33' W 095°02'0 0.0
2018-Apr-15 18:00N 29°33' W 095°02'  

Dump ship's entire track history